createdAt,value
2017-07-26T00:00:36.717Z,0
2017-07-26T00:01:17.241Z,0
2017-07-26T00:01:57.779Z,0
2017-07-26T00:02:38.300Z,0
2017-07-26T00:03:18.824Z,0
2017-07-26T00:03:59.367Z,0
2017-07-26T00:04:39.893Z,0
2017-07-26T00:05:20.422Z,0
2017-07-26T00:06:00.970Z,0
2017-07-26T00:06:41.508Z,0
2017-07-26T00:07:25.037Z,0
2017-07-26T00:08:05.574Z,0
2017-07-26T00:08:46.106Z,0
2017-07-26T00:09:26.629Z,0
2017-07-26T00:10:07.146Z,0
2017-07-26T00:10:47.684Z,0
2017-07-26T00:11:28.213Z,0
2017-07-26T00:12:08.751Z,0
2017-07-26T00:12:49.274Z,0
2017-07-26T00:13:29.813Z,0
2017-07-26T00:14:10.354Z,0
2017-07-26T00:14:50.886Z,0
2017-07-26T00:15:31.415Z,0
2017-07-26T00:16:11.949Z,0
2017-07-26T00:16:52.451Z,0
2017-07-26T00:17:32.986Z,0
2017-07-26T00:18:13.517Z,0
2017-07-26T00:18:54.062Z,0
2017-07-26T00:19:34.575Z,0
2017-07-26T00:20:15.095Z,0
2017-07-26T00:20:55.618Z,0
2017-07-26T00:21:36.163Z,0
2017-07-26T00:22:16.684Z,0
2017-07-26T00:22:57.234Z,0
2017-07-26T00:23:37.756Z,0
2017-07-26T00:24:18.295Z,0
2017-07-26T00:24:58.824Z,0
2017-07-26T00:25:39.357Z,0
2017-07-26T00:26:19.874Z,0
2017-07-26T00:27:00.408Z,0
2017-07-26T00:27:40.933Z,0
2017-07-26T00:28:21.471Z,0
2017-07-26T00:29:01.988Z,0
2017-07-26T00:29:42.506Z,0
2017-07-26T00:30:23.031Z,0
2017-07-26T00:31:03.558Z,0
2017-07-26T00:31:44.099Z,0
2017-07-26T00:32:24.621Z,0
2017-07-26T00:33:05.149Z,0
2017-07-26T00:33:45.690Z,0
2017-07-26T00:34:26.225Z,0
2017-07-26T00:35:06.760Z,0
2017-07-26T00:35:47.296Z,0
2017-07-26T00:36:27.841Z,0
2017-07-26T00:37:08.371Z,0
2017-07-26T00:37:48.894Z,0
2017-07-26T00:38:29.420Z,0
2017-07-26T00:39:09.966Z,0
2017-07-26T00:39:50.474Z,0
2017-07-26T00:40:31.006Z,0
2017-07-26T00:41:11.560Z,0
2017-07-26T00:41:52.092Z,0
2017-07-26T00:42:32.625Z,0
2017-07-26T00:43:13.159Z,0
2017-07-26T00:43:53.675Z,0
2017-07-26T00:44:34.193Z,0
2017-07-26T00:45:14.716Z,0
2017-07-26T00:45:55.241Z,0
2017-07-26T00:46:35.777Z,0
2017-07-26T00:47:16.312Z,0
2017-07-26T00:47:56.849Z,0
2017-07-26T00:48:37.383Z,0
2017-07-26T00:49:17.918Z,0
2017-07-26T00:49:58.472Z,0
2017-07-26T00:50:39.021Z,0
2017-07-26T00:51:19.530Z,0
2017-07-26T00:52:00.063Z,0
2017-07-26T00:52:40.597Z,0
2017-07-26T00:53:21.108Z,0
2017-07-26T00:54:01.664Z,0
2017-07-26T00:54:42.184Z,0
2017-07-26T00:55:22.723Z,0
2017-07-26T00:56:03.252Z,0
2017-07-26T00:56:43.794Z,0
2017-07-26T00:57:24.335Z,0
2017-07-26T00:58:04.869Z,0
2017-07-26T00:58:45.388Z,0
2017-07-26T00:59:25.914Z,0
2017-07-26T01:00:06.421Z,0
2017-07-26T01:00:46.959Z,0
2017-07-26T01:01:27.479Z,0
2017-07-26T01:02:08.006Z,0
2017-07-26T01:02:48.526Z,0
2017-07-26T01:03:29.060Z,0
2017-07-26T01:04:09.578Z,0
2017-07-26T01:04:50.108Z,0
2017-07-26T01:05:30.647Z,0
2017-07-26T01:06:11.188Z,0
2017-07-26T01:06:51.715Z,0
2017-07-26T01:07:32.237Z,0
2017-07-26T01:08:12.778Z,0
2017-07-26T01:08:53.319Z,0
2017-07-26T01:09:33.836Z,0
2017-07-26T01:10:14.366Z,0
2017-07-26T01:10:54.899Z,0
2017-07-26T01:11:35.433Z,0
2017-07-26T01:12:15.975Z,0
2017-07-26T01:12:56.547Z,0
2017-07-26T01:13:37.084Z,0
2017-07-26T01:14:17.632Z,0
2017-07-26T01:14:58.153Z,0
2017-07-26T01:15:38.694Z,0
2017-07-26T01:16:19.219Z,0
2017-07-26T01:16:59.747Z,0
2017-07-26T01:17:40.280Z,0
2017-07-26T01:18:20.816Z,0
2017-07-26T01:19:01.323Z,0
2017-07-26T01:19:41.839Z,0
2017-07-26T01:20:22.376Z,0
2017-07-26T01:21:02.918Z,0
2017-07-26T01:21:43.442Z,0
2017-07-26T01:22:23.972Z,0
2017-07-26T01:23:04.493Z,0
2017-07-26T01:23:45.034Z,0
2017-07-26T01:24:25.570Z,0
2017-07-26T01:25:06.106Z,0
2017-07-26T01:25:46.645Z,0
2017-07-26T01:26:27.156Z,0
2017-07-26T01:27:07.690Z,0
2017-07-26T01:27:48.231Z,0
2017-07-26T01:28:28.758Z,0
2017-07-26T01:29:09.278Z,0
2017-07-26T01:29:49.807Z,0
2017-07-26T01:30:30.334Z,0
2017-07-26T01:31:10.856Z,0
2017-07-26T01:31:51.405Z,0
2017-07-26T01:32:31.940Z,0
2017-07-26T01:33:12.463Z,0
2017-07-26T01:33:53.000Z,0
2017-07-26T01:34:33.536Z,0
2017-07-26T01:35:14.072Z,0
2017-07-26T01:35:54.602Z,0
2017-07-26T01:36:35.133Z,0
2017-07-26T01:37:15.656Z,0
2017-07-26T01:37:56.189Z,0
2017-07-26T01:38:36.730Z,0
2017-07-26T01:39:17.263Z,0
2017-07-26T01:39:57.784Z,0
2017-07-26T01:40:38.307Z,0
2017-07-26T01:41:18.838Z,0
2017-07-26T01:41:59.364Z,0
2017-07-26T01:42:39.878Z,0
2017-07-26T01:43:20.397Z,0
2017-07-26T01:44:00.927Z,0
2017-07-26T01:44:41.463Z,0
2017-07-26T01:45:22.016Z,0
2017-07-26T01:46:02.556Z,0
2017-07-26T01:46:43.071Z,0
2017-07-26T01:47:23.610Z,0
2017-07-26T01:48:04.163Z,0
2017-07-26T01:48:44.670Z,0
2017-07-26T01:49:25.214Z,0
2017-07-26T01:50:05.762Z,0
2017-07-26T01:50:46.295Z,0
2017-07-26T01:51:26.826Z,0
2017-07-26T01:52:07.357Z,0
2017-07-26T01:52:47.890Z,0
2017-07-26T01:53:28.418Z,0
2017-07-26T01:54:08.960Z,0
2017-07-26T01:54:49.477Z,0
2017-07-26T01:55:30.008Z,0
2017-07-26T01:56:10.551Z,0
2017-07-26T01:56:51.077Z,0
2017-07-26T01:57:31.599Z,0
2017-07-26T01:58:12.124Z,0
2017-07-26T01:58:52.659Z,0
2017-07-26T01:59:33.194Z,0
2017-07-26T02:00:13.723Z,0
2017-07-26T02:00:54.267Z,0
2017-07-26T02:01:34.785Z,0
2017-07-26T02:02:15.313Z,0
2017-07-26T02:02:55.871Z,0
2017-07-26T02:03:36.406Z,0
2017-07-26T02:04:16.926Z,0
2017-07-26T02:04:57.451Z,0
2017-07-26T02:05:37.964Z,0
2017-07-26T02:06:18.478Z,0
2017-07-26T02:06:59.004Z,0
2017-07-26T02:07:39.528Z,0
2017-07-26T02:08:20.064Z,0
2017-07-26T02:09:00.606Z,0
2017-07-26T02:09:41.136Z,0
2017-07-26T02:10:21.655Z,0
2017-07-26T02:11:02.185Z,0
2017-07-26T02:11:42.708Z,0
2017-07-26T02:12:23.251Z,0
2017-07-26T02:13:03.916Z,0
2017-07-26T02:13:44.439Z,0
2017-07-26T02:14:24.990Z,0
2017-07-26T02:15:05.527Z,0
2017-07-26T02:15:46.050Z,0
2017-07-26T02:16:26.589Z,0
2017-07-26T02:17:07.125Z,0
2017-07-26T02:17:47.661Z,0
2017-07-26T02:18:28.206Z,0
2017-07-26T02:19:08.738Z,0
2017-07-26T02:19:49.267Z,0
2017-07-26T02:20:29.804Z,0
2017-07-26T02:21:10.334Z,0
2017-07-26T02:21:50.878Z,0
2017-07-26T02:22:31.388Z,0
2017-07-26T02:23:11.917Z,0
2017-07-26T02:23:52.443Z,0
2017-07-26T02:24:32.980Z,0
2017-07-26T02:25:13.522Z,0
2017-07-26T02:25:54.045Z,0
2017-07-26T02:26:34.566Z,0
2017-07-26T02:27:15.095Z,0
2017-07-26T02:27:55.629Z,0
2017-07-26T02:28:36.153Z,0
2017-07-26T02:29:16.694Z,0
2017-07-26T02:29:57.224Z,0
2017-07-26T02:30:37.744Z,0
2017-07-26T02:31:18.276Z,0
2017-07-26T02:31:58.792Z,0
2017-07-26T02:32:39.344Z,0
2017-07-26T02:33:19.856Z,0
2017-07-26T02:34:00.391Z,0
2017-07-26T02:34:40.932Z,0
2017-07-26T02:35:21.479Z,0
2017-07-26T02:36:02.016Z,0
2017-07-26T02:36:42.559Z,0
2017-07-26T02:37:23.106Z,0
2017-07-26T02:38:03.648Z,0
2017-07-26T02:38:44.184Z,0
2017-07-26T02:39:24.719Z,0
2017-07-26T02:40:05.256Z,0
2017-07-26T02:40:45.787Z,0
2017-07-26T02:41:26.327Z,0
2017-07-26T02:42:06.855Z,0
2017-07-26T02:42:47.402Z,0
2017-07-26T02:43:27.931Z,0
2017-07-26T02:44:08.467Z,0
2017-07-26T02:44:49.002Z,0
2017-07-26T02:45:29.539Z,0
2017-07-26T02:46:10.076Z,0
2017-07-26T02:46:50.595Z,0
2017-07-26T02:47:31.124Z,0
2017-07-26T02:48:11.667Z,0
2017-07-26T02:48:52.202Z,0
2017-07-26T02:49:32.743Z,0
2017-07-26T02:50:13.281Z,0
2017-07-26T02:50:53.813Z,0
2017-07-26T02:51:34.349Z,0
2017-07-26T02:52:14.887Z,0
2017-07-26T02:52:55.410Z,0
2017-07-26T02:53:35.949Z,0
2017-07-26T02:54:16.495Z,0
2017-07-26T02:54:57.036Z,0
2017-07-26T02:55:37.574Z,0
2017-07-26T02:56:18.095Z,0
2017-07-26T02:56:58.628Z,0
2017-07-26T02:57:39.160Z,0
2017-07-26T02:58:19.700Z,0
2017-07-26T02:59:00.238Z,0
2017-07-26T02:59:40.769Z,0
2017-07-26T03:00:21.295Z,0
2017-07-26T03:01:01.810Z,0
2017-07-26T03:01:42.371Z,0
2017-07-26T03:02:22.907Z,0
2017-07-26T03:03:03.427Z,0
2017-07-26T03:03:43.938Z,0
2017-07-26T03:04:24.469Z,0
2017-07-26T03:05:04.994Z,0
2017-07-26T03:05:45.536Z,0
2017-07-26T03:06:26.071Z,0
2017-07-26T03:07:06.607Z,0
2017-07-26T03:07:47.134Z,0
2017-07-26T03:08:27.667Z,0
2017-07-26T03:09:08.196Z,0
2017-07-26T03:09:48.730Z,0
2017-07-26T03:10:29.259Z,0
2017-07-26T03:11:09.779Z,0
2017-07-26T03:11:50.307Z,0
2017-07-26T03:12:30.845Z,0
2017-07-26T03:13:11.400Z,0
2017-07-26T03:13:51.939Z,0
2017-07-26T03:14:32.473Z,0
2017-07-26T03:15:13.006Z,0
2017-07-26T03:15:53.533Z,0
2017-07-26T03:16:34.060Z,0
2017-07-26T03:17:14.596Z,0
2017-07-26T03:17:55.138Z,0
2017-07-26T03:18:35.678Z,0
2017-07-26T03:19:16.209Z,0
2017-07-26T03:19:56.740Z,0
2017-07-26T03:20:37.277Z,0
2017-07-26T03:21:17.812Z,0
2017-07-26T03:21:58.367Z,0
2017-07-26T03:22:38.889Z,0
2017-07-26T03:23:19.418Z,0
2017-07-26T03:23:59.930Z,0
2017-07-26T03:24:40.467Z,0
2017-07-26T03:25:20.994Z,0
2017-07-26T03:26:01.520Z,0
2017-07-26T03:26:42.062Z,0
2017-07-26T03:27:22.584Z,0
2017-07-26T03:28:03.126Z,0
2017-07-26T03:28:43.662Z,0
2017-07-26T03:29:24.192Z,0
2017-07-26T03:30:04.721Z,0
2017-07-26T03:30:45.316Z,0
2017-07-26T03:31:25.802Z,0
2017-07-26T03:32:06.336Z,4
2017-07-26T03:32:46.899Z,4
2017-07-26T03:33:27.424Z,4
2017-07-26T03:34:07.962Z,0
2017-07-26T03:34:48.491Z,4
2017-07-26T03:35:29.019Z,4
2017-07-26T03:36:09.548Z,4
2017-07-26T03:36:50.084Z,4
2017-07-26T03:37:30.611Z,8
2017-07-26T03:38:11.144Z,8
2017-07-26T03:38:51.685Z,8
2017-07-26T03:39:32.200Z,8
2017-07-26T03:40:12.743Z,8
2017-07-26T03:40:53.285Z,12
2017-07-26T03:41:33.823Z,8
2017-07-26T03:42:14.370Z,12
2017-07-26T03:42:54.911Z,8
2017-07-26T03:43:35.447Z,8
2017-07-26T03:44:15.978Z,8
2017-07-26T03:44:56.506Z,8
2017-07-26T03:45:37.038Z,8
2017-07-26T03:46:17.577Z,12
2017-07-26T03:46:58.112Z,8
2017-07-26T03:47:38.647Z,8
2017-07-26T03:48:19.172Z,8
2017-07-26T03:48:59.716Z,4
2017-07-26T03:49:40.242Z,8
2017-07-26T03:50:20.775Z,12
2017-07-26T03:51:01.432Z,16
2017-07-26T03:51:41.959Z,16
2017-07-26T03:52:22.498Z,20
2017-07-26T03:53:03.071Z,20
2017-07-26T03:53:43.604Z,20
2017-07-26T03:54:24.143Z,16
2017-07-26T03:55:04.668Z,16
2017-07-26T03:55:45.203Z,28
2017-07-26T03:56:25.746Z,32
2017-07-26T03:57:06.274Z,28
2017-07-26T03:57:46.801Z,24
2017-07-26T03:58:27.350Z,20
2017-07-26T03:59:07.856Z,12
2017-07-26T03:59:48.390Z,20
2017-07-26T04:00:28.924Z,16
2017-07-26T04:01:09.506Z,8
2017-07-26T04:01:49.974Z,8
2017-07-26T04:02:30.508Z,20
2017-07-26T04:03:11.036Z,40
2017-07-26T04:03:51.545Z,32
2017-07-26T04:04:32.068Z,28
2017-07-26T04:05:12.610Z,28
2017-07-26T04:05:53.157Z,20
2017-07-26T04:06:33.689Z,12
2017-07-26T04:07:14.222Z,12
2017-07-26T04:07:54.746Z,12
2017-07-26T04:08:35.252Z,12
2017-07-26T04:09:15.804Z,12
2017-07-26T04:09:56.354Z,16
2017-07-26T04:10:36.886Z,12
2017-07-26T04:11:17.442Z,12
2017-07-26T04:11:57.975Z,20
2017-07-26T04:12:38.509Z,28
2017-07-26T04:13:19.054Z,28
2017-07-26T04:13:59.563Z,24
2017-07-26T04:14:40.102Z,28
2017-07-26T04:15:20.635Z,28
2017-07-26T04:16:01.201Z,20
2017-07-26T04:16:41.702Z,16
2017-07-26T04:17:22.231Z,20
2017-07-26T04:18:02.761Z,36
2017-07-26T04:18:43.301Z,24
2017-07-26T04:19:23.830Z,20
2017-07-26T04:20:04.366Z,20
2017-07-26T04:20:44.895Z,24
2017-07-26T04:21:25.426Z,28
2017-07-26T04:22:05.977Z,20
2017-07-26T04:22:46.514Z,24
2017-07-26T04:23:27.047Z,20
2017-07-26T04:24:07.580Z,24
2017-07-26T04:24:48.108Z,24
2017-07-26T04:25:28.634Z,28
2017-07-26T04:26:09.175Z,20
2017-07-26T04:26:49.839Z,28
2017-07-26T04:27:30.274Z,28
2017-07-26T04:28:10.769Z,28
2017-07-26T04:28:51.290Z,24
2017-07-26T04:29:31.816Z,20
2017-07-26T04:30:12.348Z,28
2017-07-26T04:30:52.877Z,24
2017-07-26T04:31:33.403Z,40
2017-07-26T04:32:13.943Z,40
2017-07-26T04:32:54.482Z,40
2017-07-26T04:33:34.992Z,32
2017-07-26T04:34:15.502Z,36
2017-07-26T04:34:56.033Z,48
2017-07-26T04:35:36.571Z,56
2017-07-26T04:36:17.102Z,80
2017-07-26T04:36:57.643Z,100
2017-07-26T04:37:38.177Z,104
2017-07-26T04:38:18.726Z,72
2017-07-26T04:38:59.253Z,84
2017-07-26T04:39:39.809Z,100
2017-07-26T04:40:20.281Z,92
2017-07-26T04:41:00.822Z,116
2017-07-26T04:41:41.358Z,124
2017-07-26T04:42:21.898Z,128
2017-07-26T04:43:02.426Z,112
2017-07-26T04:43:42.963Z,120
2017-07-26T04:44:23.502Z,204
2017-07-26T04:45:04.015Z,232
2017-07-26T04:45:44.536Z,216
2017-07-26T04:46:25.076Z,192
2017-07-26T04:47:05.591Z,176
2017-07-26T04:47:46.123Z,164
2017-07-26T04:48:26.661Z,168
2017-07-26T04:49:07.165Z,128
2017-07-26T04:49:47.702Z,104
2017-07-26T04:50:28.227Z,108
2017-07-26T04:51:08.760Z,112
2017-07-26T04:51:49.297Z,108
2017-07-26T04:52:29.830Z,92
2017-07-26T04:53:10.374Z,108
2017-07-26T04:53:50.916Z,112
2017-07-26T04:54:31.439Z,116
2017-07-26T04:55:11.946Z,108
2017-07-26T04:55:52.483Z,180
2017-07-26T04:56:33.005Z,268
2017-07-26T04:57:13.535Z,236
2017-07-26T04:57:54.047Z,204
2017-07-26T04:58:34.581Z,260
2017-07-26T04:59:15.105Z,264
2017-07-26T04:59:55.612Z,320
2017-07-26T05:00:36.155Z,420
2017-07-26T05:01:16.666Z,332
2017-07-26T05:01:57.211Z,452
2017-07-26T05:02:37.732Z,536
2017-07-26T05:03:18.244Z,632
2017-07-26T05:03:58.775Z,480
2017-07-26T05:04:39.315Z,536
2017-07-26T05:05:19.860Z,804
2017-07-26T05:06:00.359Z,768
2017-07-26T05:06:40.897Z,616
2017-07-26T05:07:21.451Z,796
2017-07-26T05:08:01.968Z,776
2017-07-26T05:08:42.515Z,560
2017-07-26T05:09:23.020Z,604
2017-07-26T05:10:03.552Z,800
2017-07-26T05:10:44.067Z,636
2017-07-26T05:11:24.614Z,596
2017-07-26T05:12:05.135Z,548
2017-07-26T05:12:45.648Z,636
2017-07-26T05:13:26.192Z,560
2017-07-26T05:14:06.731Z,648
2017-07-26T05:14:47.263Z,752
2017-07-26T05:15:27.785Z,616
2017-07-26T05:16:08.309Z,492
2017-07-26T05:16:48.851Z,500
2017-07-26T05:17:29.396Z,516
2017-07-26T05:18:09.931Z,616
2017-07-26T05:18:50.421Z,592
2017-07-26T05:19:30.964Z,528
2017-07-26T05:20:11.503Z,540
2017-07-26T05:20:52.013Z,648
2017-07-26T05:21:32.567Z,456
2017-07-26T05:22:13.080Z,584
2017-07-26T05:22:53.610Z,692
2017-07-26T05:23:34.152Z,600
2017-07-26T05:24:14.700Z,532
2017-07-26T05:24:55.229Z,364
2017-07-26T05:25:35.781Z,368
2017-07-26T05:26:16.300Z,492
2017-07-26T05:26:56.824Z,484
2017-07-26T05:27:37.359Z,584
2017-07-26T05:28:17.881Z,712
2017-07-26T05:28:58.421Z,1028
2017-07-26T05:29:38.932Z,688
2017-07-26T05:30:19.475Z,512
2017-07-26T05:30:59.990Z,856
2017-07-26T05:31:40.529Z,828
2017-07-26T05:32:21.087Z,1476
2017-07-26T05:33:01.608Z,1156
2017-07-26T05:33:42.110Z,732
2017-07-26T05:34:22.638Z,1204
2017-07-26T05:35:03.225Z,832
2017-07-26T05:35:43.755Z,1304
2017-07-26T05:36:24.289Z,1220
2017-07-26T05:37:04.817Z,1648
2017-07-26T05:37:45.357Z,1636
2017-07-26T05:38:25.882Z,1600
2017-07-26T05:39:06.418Z,1380
2017-07-26T05:39:46.958Z,1180
2017-07-26T05:40:27.488Z,1312
2017-07-26T05:41:08.029Z,1488
2017-07-26T05:41:48.566Z,1112
2017-07-26T05:42:29.078Z,1296
2017-07-26T05:43:09.614Z,1464
2017-07-26T05:43:50.136Z,1460
2017-07-26T05:44:30.674Z,1804
2017-07-26T05:45:11.193Z,1852
2017-07-26T05:45:51.741Z,1260
2017-07-26T05:46:32.297Z,1428
2017-07-26T05:47:12.818Z,1596
2017-07-26T05:47:53.335Z,1380
2017-07-26T05:48:33.882Z,1640
2017-07-26T05:49:14.382Z,1792
2017-07-26T05:49:54.917Z,1296
2017-07-26T05:50:35.439Z,1228
2017-07-26T05:51:15.974Z,1072
2017-07-26T05:51:56.481Z,1140
2017-07-26T05:52:37.008Z,1020
2017-07-26T05:53:17.548Z,824
2017-07-26T05:53:58.074Z,988
2017-07-26T05:54:38.620Z,1128
2017-07-26T05:55:19.144Z,1020
2017-07-26T05:55:59.685Z,1060
2017-07-26T05:56:40.221Z,1084
2017-07-26T05:57:20.757Z,1292
2017-07-26T05:58:01.290Z,1460
2017-07-26T05:58:41.802Z,1576
2017-07-26T05:59:22.330Z,1480
2017-07-26T06:00:02.960Z,1960
2017-07-26T06:00:43.503Z,1828
2017-07-26T06:01:24.072Z,1908
2017-07-26T06:02:04.612Z,1884
2017-07-26T06:02:45.132Z,1832
2017-07-26T06:03:25.654Z,2112
2017-07-26T06:04:06.183Z,2044
2017-07-26T06:04:46.726Z,1672
2017-07-26T06:05:27.255Z,1444
2017-07-26T06:06:07.779Z,1332
2017-07-26T06:06:48.296Z,1360
2017-07-26T06:07:28.833Z,2088
2017-07-26T06:08:09.373Z,1684
2017-07-26T06:08:49.916Z,1380
2017-07-26T06:09:30.448Z,1464
2017-07-26T06:10:10.979Z,1716
2017-07-26T06:10:51.515Z,1592
2017-07-26T06:11:32.047Z,1400
2017-07-26T06:12:12.591Z,1840
2017-07-26T06:12:53.203Z,2056
2017-07-26T06:13:33.746Z,1656
2017-07-26T06:14:14.271Z,1652
2017-07-26T06:14:54.800Z,1340
2017-07-26T06:15:35.340Z,1328
2017-07-26T06:16:15.878Z,1352
2017-07-26T06:16:56.411Z,1392
2017-07-26T06:17:36.976Z,1308
2017-07-26T06:18:17.965Z,1492
2017-07-26T06:18:58.769Z,1820
2017-07-26T06:19:39.374Z,2036
2017-07-26T06:20:20.105Z,1424
2017-07-26T06:21:00.877Z,1324
2017-07-26T06:21:41.581Z,1696
2017-07-26T06:22:22.341Z,1532
2017-07-26T06:23:03.017Z,1456
2017-07-26T06:23:43.557Z,1520
2017-07-26T06:24:24.189Z,1732
2017-07-26T06:25:04.720Z,2064
2017-07-26T06:25:45.406Z,1584
2017-07-26T06:26:26.175Z,1188
2017-07-26T06:27:07.021Z,1464
2017-07-26T06:27:47.642Z,2196
2017-07-26T06:28:28.387Z,2048
2017-07-26T06:29:09.052Z,1784
2017-07-26T06:29:50.082Z,1616
2017-07-26T06:30:30.771Z,1472
2017-07-26T06:31:11.543Z,1512
2017-07-26T06:31:52.096Z,1588
2017-07-26T06:32:32.616Z,1304
2017-07-26T06:33:13.287Z,1776
2017-07-26T06:33:53.801Z,2220
2017-07-26T06:34:34.334Z,2308
2017-07-26T06:35:14.874Z,2888
2017-07-26T06:35:55.589Z,2284
2017-07-26T06:36:36.248Z,2108
2017-07-26T06:37:17.937Z,2032
2017-07-26T06:38:00.243Z,2656
2017-07-26T06:38:42.864Z,2372
2017-07-26T06:39:23.484Z,2340
2017-07-26T06:40:04.275Z,2360
2017-07-26T06:40:46.658Z,2788
2017-07-26T06:41:27.839Z,2900
2017-07-26T06:42:12.028Z,2700
2017-07-26T06:42:52.597Z,2008
2017-07-26T06:43:33.416Z,2520
2017-07-26T06:44:14.022Z,2324
2017-07-26T06:44:54.561Z,2248
2017-07-26T06:45:35.161Z,2300
2017-07-26T06:46:17.003Z,2452
2017-07-26T06:47:00.506Z,2900
2017-07-26T06:49:17.152Z,2676
2017-07-26T06:49:57.780Z,3448
2017-07-26T06:50:38.382Z,3776
2017-07-26T06:51:19.016Z,3432
2017-07-26T06:51:59.893Z,3004
2017-07-26T06:52:40.365Z,2352
2017-07-26T06:53:20.982Z,2308
2017-07-26T06:54:01.690Z,2076
2017-07-26T06:54:42.316Z,2604
2017-07-26T06:55:23.151Z,3100
2017-07-26T06:56:04.472Z,3484
2017-07-26T06:56:45.132Z,3100
2017-07-26T06:57:25.726Z,3504
2017-07-26T06:58:06.329Z,3532
2017-07-26T06:58:46.870Z,3984
2017-07-26T06:59:27.415Z,4568
2017-07-26T07:00:08.287Z,4576
2017-07-26T07:00:48.817Z,3944
2017-07-26T07:01:30.817Z,3816
2017-07-26T07:02:11.342Z,3928
2017-07-26T07:02:52.077Z,4280
2017-07-26T07:03:32.494Z,3896
2017-07-26T07:04:13.027Z,3204
2017-07-26T07:04:53.611Z,2976
2017-07-26T07:05:34.154Z,3872
2017-07-26T07:06:14.701Z,4232
2017-07-26T07:06:55.241Z,4416
2017-07-26T07:07:35.777Z,4588
2017-07-26T07:08:16.301Z,4080
2017-07-26T07:08:56.830Z,4024
2017-07-26T07:09:37.375Z,4532
2017-07-26T07:10:17.918Z,5152
2017-07-26T07:10:58.458Z,4692
2017-07-26T07:11:38.995Z,3972
2017-07-26T07:12:19.541Z,3960
2017-07-26T07:13:00.140Z,3904
2017-07-26T07:13:40.655Z,4296
2017-07-26T07:14:21.192Z,3888
2017-07-26T07:15:01.736Z,3936
2017-07-26T07:15:42.258Z,4372
2017-07-26T07:16:22.811Z,4968
2017-07-26T07:17:03.342Z,5252
2017-07-26T07:17:43.889Z,5080
2017-07-26T07:18:24.436Z,5352
2017-07-26T07:19:04.980Z,5464
2017-07-26T07:19:45.511Z,4992
2017-07-26T07:20:26.056Z,4308
2017-07-26T07:21:06.605Z,3996
2017-07-26T07:21:47.147Z,4124
2017-07-26T07:22:27.674Z,4836
2017-07-26T07:23:08.208Z,5416
2017-07-26T07:23:48.718Z,5772
2017-07-26T07:24:29.257Z,6080
2017-07-26T07:25:09.776Z,6356
2017-07-26T07:25:50.308Z,5932
2017-07-26T07:26:30.866Z,5792
2017-07-26T07:27:11.374Z,5404
2017-07-26T07:27:51.912Z,5584
2017-07-26T07:28:32.431Z,5804
2017-07-26T07:29:12.959Z,5588
2017-07-26T07:29:53.473Z,5228
2017-07-26T07:30:34.003Z,4992
2017-07-26T07:31:14.550Z,4808
2017-07-26T07:31:55.096Z,5196
2017-07-26T07:32:35.613Z,5480
2017-07-26T07:33:16.147Z,5540
2017-07-26T07:33:56.687Z,5228
2017-07-26T07:34:37.224Z,4820
2017-07-26T07:35:17.765Z,4320
2017-07-26T07:35:58.283Z,3732
2017-07-26T07:36:38.812Z,4012
2017-07-26T07:37:19.349Z,4508
2017-07-26T07:37:59.892Z,4848
2017-07-26T07:38:40.443Z,4880
2017-07-26T07:39:20.956Z,5392
2017-07-26T07:40:01.488Z,5316
2017-07-26T07:40:42.025Z,5964
2017-07-26T07:41:22.600Z,7420
2017-07-26T07:42:03.141Z,6928
2017-07-26T07:42:43.667Z,6120
2017-07-26T07:43:24.202Z,6912
2017-07-26T07:44:04.746Z,6260
2017-07-26T07:44:45.286Z,6444
2017-07-26T07:45:25.812Z,6440
2017-07-26T07:46:06.340Z,5780
2017-07-26T07:46:46.922Z,7224
2017-07-26T07:47:27.446Z,7224
2017-07-26T07:48:07.963Z,8356
2017-07-26T07:48:48.519Z,10600
2017-07-26T07:49:29.039Z,9444
2017-07-26T07:50:10.116Z,12728
2017-07-26T07:50:51.213Z,10548
2017-07-26T07:51:31.943Z,11472
2017-07-26T07:52:12.636Z,10636
2017-07-26T07:52:53.212Z,12572
2017-07-26T07:53:34.324Z,10656
2017-07-26T07:54:14.959Z,9896
2017-07-26T07:54:55.719Z,42656
2017-07-26T07:55:36.387Z,38080
2017-07-26T07:56:16.920Z,35936
2017-07-26T07:56:57.664Z,12836
2017-07-26T07:57:38.356Z,14480
2017-07-26T07:58:19.096Z,13748
2017-07-26T07:58:59.785Z,12340
2017-07-26T07:59:40.340Z,12104
2017-07-26T08:00:20.858Z,12940
2017-07-26T08:01:01.656Z,13192
2017-07-26T08:01:42.921Z,12804
2017-07-26T08:02:23.385Z,13416
2017-07-26T08:03:04.317Z,10072
2017-07-26T08:03:45.622Z,8940
2017-07-26T08:04:26.634Z,8604
2017-07-26T08:05:07.421Z,9376
2017-07-26T08:05:48.090Z,8768
2017-07-26T08:06:28.943Z,11016
2017-07-26T08:07:10.007Z,10824
2017-07-26T08:07:50.657Z,10516
2017-07-26T08:08:31.298Z,10648
2017-07-26T08:09:11.860Z,9584
2017-07-26T08:09:52.594Z,8136
2017-07-26T08:10:33.220Z,7308
2017-07-26T08:11:13.755Z,6612
2017-07-26T08:11:54.787Z,5052
2017-07-26T08:12:35.371Z,5276
2017-07-26T08:13:15.885Z,11520
2017-07-26T08:13:56.901Z,6852
2017-07-26T08:14:37.665Z,8296
2017-07-26T08:15:18.263Z,51072
2017-07-26T08:15:58.793Z,53632
2017-07-26T08:16:39.666Z,54528
2017-07-26T08:17:20.312Z,11792
2017-07-26T08:18:01.109Z,52576
2017-07-26T08:18:41.654Z,54112
2017-07-26T08:19:22.414Z,41600
2017-07-26T08:20:03.072Z,51200
2017-07-26T08:20:43.831Z,10392
2017-07-26T08:21:24.347Z,21440
2017-07-26T08:22:04.888Z,9800
2017-07-26T08:22:45.400Z,9564
2017-07-26T08:23:25.986Z,10624
2017-07-26T08:24:06.504Z,41728
2017-07-26T08:24:47.032Z,12840
2017-07-26T08:25:27.571Z,32256
2017-07-26T08:26:08.098Z,13612
2017-07-26T08:26:48.640Z,15992
2017-07-26T08:27:29.376Z,10576
2017-07-26T08:28:10.060Z,9244
2017-07-26T08:28:50.574Z,10380
2017-07-26T08:29:31.207Z,9744
2017-07-26T08:30:11.742Z,11056
2017-07-26T08:30:52.398Z,9752
2017-07-26T08:31:32.941Z,9760
2017-07-26T08:32:13.486Z,9928
2017-07-26T08:32:54.050Z,15240
2017-07-26T08:33:34.601Z,6804
2017-07-26T08:34:15.142Z,9624
2017-07-26T08:34:55.866Z,8496
2017-07-26T08:35:36.440Z,9420
2017-07-26T08:36:17.227Z,8404
2017-07-26T08:36:58.218Z,6432
2017-07-26T08:37:39.003Z,5380
2017-07-26T08:38:19.686Z,6320
2017-07-26T08:39:00.260Z,59168
2017-07-26T08:39:40.776Z,34784
2017-07-26T08:40:21.294Z,23584
2017-07-26T08:41:01.821Z,5140
2017-07-26T08:41:42.528Z,6396
2017-07-26T08:42:23.360Z,7132
2017-07-26T08:43:03.910Z,14432
2017-07-26T08:43:44.450Z,11796
2017-07-26T08:44:24.988Z,8352
2017-07-26T08:45:05.508Z,7572
2017-07-26T08:45:46.049Z,7588
2017-07-26T08:46:26.578Z,6616
2017-07-26T08:47:07.113Z,5476
2017-07-26T08:47:47.644Z,5264
2017-07-26T08:48:28.207Z,4992
2017-07-26T08:49:08.711Z,5428
2017-07-26T08:49:49.503Z,8080
2017-07-26T08:50:30.207Z,13008
2017-07-26T08:51:11.126Z,60192
2017-07-26T08:51:51.890Z,9332
2017-07-26T08:52:32.763Z,6624
2017-07-26T08:53:13.498Z,6192
2017-07-26T08:53:54.223Z,5028
2017-07-26T08:54:35.265Z,4736
2017-07-26T08:55:15.605Z,4544
2017-07-26T08:55:56.741Z,4132
2017-07-26T08:56:37.420Z,4512
2017-07-26T08:57:18.085Z,4568
2017-07-26T08:57:58.626Z,7080
2017-07-26T08:58:39.250Z,6840
2017-07-26T08:59:19.796Z,7004
2017-07-26T09:00:00.544Z,7596
2017-07-26T09:00:41.352Z,7544
2017-07-26T09:01:21.893Z,8700
2017-07-26T09:02:02.619Z,6796
2017-07-26T09:02:43.285Z,8780
2017-07-26T09:03:23.821Z,8328
2017-07-26T09:04:04.350Z,11728
2017-07-26T09:04:45.183Z,11664
2017-07-26T09:05:26.005Z,33376
2017-07-26T09:06:06.758Z,8104
2017-07-26T09:06:47.556Z,5980
2017-07-26T09:07:28.144Z,5540
2017-07-26T09:08:08.984Z,5072
2017-07-26T09:08:49.607Z,5220
2017-07-26T09:09:30.127Z,6376
2017-07-26T09:10:10.679Z,6576
2017-07-26T09:10:51.211Z,5344
2017-07-26T09:11:31.730Z,4716
2017-07-26T09:12:12.326Z,4624
2017-07-26T09:12:52.900Z,13268
2017-07-26T09:13:33.409Z,8256
2017-07-26T09:14:13.956Z,10924
2017-07-26T09:14:54.485Z,12232
2017-07-26T09:15:35.013Z,11792
2017-07-26T09:16:15.547Z,9952
2017-07-26T09:16:56.099Z,7588
2017-07-26T09:17:36.642Z,6748
2017-07-26T09:18:17.189Z,6560
2017-07-26T09:18:57.724Z,6888
2017-07-26T09:19:38.244Z,7128
2017-07-26T09:20:18.778Z,7384
2017-07-26T09:20:59.321Z,9468
2017-07-26T09:21:39.851Z,78848
2017-07-26T09:22:20.380Z,79488
2017-07-26T09:23:00.923Z,46432
2017-07-26T09:23:41.456Z,44960
2017-07-26T09:24:22.006Z,16924
2017-07-26T09:25:02.553Z,17280
2017-07-26T09:25:43.086Z,10996
2017-07-26T09:26:23.605Z,8628
2017-07-26T09:27:04.158Z,7644
2017-07-26T09:27:44.698Z,7216
2017-07-26T09:28:25.260Z,7956